createdAt,value
2018-03-31T00:04:26.712Z,20.60
2018-03-31T00:09:28.866Z,20.60
2018-03-31T00:14:30.914Z,20.60
2018-03-31T00:19:32.941Z,20.60
2018-03-31T00:24:35.205Z,20.50
2018-03-31T00:29:38.134Z,20.50
2018-03-31T00:34:40.160Z,20.50
2018-03-31T00:39:42.189Z,20.50
2018-03-31T00:44:44.209Z,20.50
2018-03-31T00:49:46.256Z,20.50
2018-03-31T00:54:48.289Z,20.50
2018-03-31T00:59:50.348Z,20.50
2018-03-31T01:04:52.575Z,20.50
2018-03-31T01:09:54.661Z,20.50
2018-03-31T01:14:56.705Z,20.50
2018-03-31T01:19:58.776Z,20.50
2018-03-31T01:25:01.021Z,20.50
2018-03-31T01:30:03.830Z,20.40
2018-03-31T01:35:06.687Z,20.40
2018-03-31T01:40:08.749Z,20.40
2018-03-31T01:45:10.807Z,20.40
2018-03-31T01:50:12.874Z,20.40
2018-03-31T01:55:14.954Z,20.40
2018-03-31T02:00:17.039Z,20.40
2018-03-31T02:05:19.081Z,20.40
2018-03-31T02:10:21.250Z,20.40
2018-03-31T02:15:23.290Z,20.40
2018-03-31T02:20:26.316Z,20.40
2018-03-31T02:25:28.453Z,20.30
2018-03-31T02:30:30.504Z,20.40
2018-03-31T02:35:32.556Z,20.40
2018-03-31T02:40:34.629Z,20.40
2018-03-31T02:45:37.649Z,20.40
2018-03-31T02:50:39.723Z,20.30
2018-03-31T02:55:42.687Z,20.40
2018-03-31T03:00:44.976Z,20.30
2018-03-31T03:05:47.092Z,20.30
2018-03-31T03:10:49.883Z,20.30
2018-03-31T03:15:52.735Z,20.30
2018-03-31T03:20:54.848Z,20.30
2018-03-31T03:25:57.003Z,20.30
2018-03-31T03:30:59.068Z,20.30
2018-03-31T03:36:01.221Z,20.30
2018-03-31T03:41:04.233Z,20.30
2018-03-31T03:46:06.315Z,20.30
2018-03-31T03:51:09.146Z,20.30
2018-03-31T03:56:11.203Z,20.30
2018-03-31T04:01:13.365Z,20.30
2018-03-31T04:06:15.596Z,20.30
2018-03-31T04:11:17.670Z,20.30
2018-03-31T04:16:20.103Z,20.30
2018-03-31T04:21:22.464Z,20.30
2018-03-31T04:26:24.623Z,20.30
2018-03-31T04:31:26.900Z,20.30
2018-03-31T04:36:29.868Z,20.30
2018-03-31T04:41:31.896Z,20.30
2018-03-31T04:46:33.990Z,20.20
2018-03-31T04:51:36.196Z,20.20
2018-03-31T04:56:38.208Z,20.20
2018-03-31T05:01:40.246Z,20.20
2018-03-31T05:06:42.364Z,20.20
2018-03-31T05:11:44.722Z,20.30
2018-03-31T05:16:46.820Z,20.20
2018-03-31T05:21:48.948Z,20.20
2018-03-31T05:26:50.978Z,20.20
2018-03-31T05:31:53.248Z,20.20
2018-03-31T05:36:55.329Z,20.20
2018-03-31T05:41:57.362Z,20.20
2018-03-31T05:46:59.786Z,20.20
2018-03-31T05:52:02.074Z,20.20
2018-03-31T05:57:04.123Z,20.20
2018-03-31T06:02:06.240Z,20.20
2018-03-31T06:07:09.181Z,20.20
2018-03-31T06:12:11.217Z,20.20
2018-03-31T06:17:13.477Z,20.20
2018-03-31T06:22:15.562Z,20.20
2018-03-31T06:27:17.623Z,20.20
2018-03-31T06:32:19.698Z,20.10
2018-03-31T06:37:21.996Z,20.10
2018-03-31T06:42:24.026Z,20.20
2018-03-31T06:47:26.848Z,20.20
2018-03-31T06:52:28.896Z,20.20
2018-03-31T06:57:30.967Z,20.20
2018-03-31T07:02:33.112Z,20.20
2018-03-31T07:07:35.197Z,20.10
2018-03-31T07:12:37.272Z,20.10
2018-03-31T07:17:39.360Z,20.10
2018-03-31T07:22:42.270Z,20.10
2018-03-31T07:27:44.450Z,20.30
2018-03-31T07:32:46.705Z,20.50
2018-03-31T07:37:48.823Z,20.50
2018-03-31T07:42:50.953Z,20.60
2018-03-31T07:47:53.052Z,20.50
2018-03-31T07:52:55.923Z,20.50
2018-03-31T07:57:58.038Z,20.50
2018-03-31T08:03:00.125Z,20.50
2018-03-31T08:08:02.211Z,20.50
2018-03-31T08:13:04.368Z,20.70
2018-03-31T08:18:06.464Z,20.60
2018-03-31T08:23:08.550Z,20.60
2018-03-31T08:28:10.603Z,20.60
2018-03-31T08:33:12.721Z,20.60
2018-03-31T08:38:15.516Z,20.60
2018-03-31T08:43:18.320Z,20.60
2018-03-31T08:48:21.329Z,20.60
2018-03-31T08:53:23.378Z,20.60
2018-03-31T08:58:25.633Z,20.60
2018-03-31T09:03:27.686Z,20.60
2018-03-31T09:08:29.933Z,20.50
2018-03-31T09:13:31.985Z,20.50
2018-03-31T09:18:34.213Z,20.50
2018-03-31T09:23:36.527Z,20.50
2018-03-31T09:28:38.809Z,20.50
2018-03-31T09:33:41.807Z,20.50
2018-03-31T09:38:43.844Z,20.50
2018-03-31T09:43:45.982Z,20.50
2018-03-31T09:48:48.818Z,20.50
2018-03-31T09:53:50.850Z,20.50
2018-03-31T09:58:53.366Z,20.60
2018-03-31T10:03:56.161Z,20.60
2018-03-31T10:08:58.274Z,20.60
2018-03-31T10:14:00.335Z,20.70
2018-03-31T10:19:02.389Z,20.80
2018-03-31T10:24:04.428Z,20.80
2018-03-31T10:29:06.587Z,21.00
2018-03-31T10:34:08.730Z,21.00
2018-03-31T10:39:11.558Z,21.00
2018-03-31T10:44:14.560Z,21.00
2018-03-31T10:49:16.600Z,21.00
2018-03-31T10:54:18.672Z,21.00
2018-03-31T10:59:20.720Z,21.10
2018-03-31T11:04:22.909Z,21.20
2018-03-31T11:09:24.948Z,21.20
2018-03-31T11:14:27.009Z,21.30
2018-03-31T11:19:29.281Z,21.40
2018-03-31T11:24:31.391Z,21.40
2018-03-31T11:29:33.639Z,21.40
2018-03-31T11:34:35.677Z,21.40
2018-03-31T11:39:37.779Z,21.50
2018-03-31T11:44:39.904Z,21.60
2018-03-31T11:49:42.015Z,21.60
2018-03-31T11:54:44.083Z,21.60
2018-03-31T11:59:46.397Z,21.60
2018-03-31T12:04:48.458Z,21.70
2018-03-31T12:09:50.692Z,21.70
2018-03-31T12:14:53.690Z,21.80
2018-03-31T12:19:55.754Z,21.80
2018-03-31T12:24:59.744Z,21.90
2018-03-31T12:30:01.787Z,21.90
2018-03-31T12:35:03.838Z,21.90
2018-03-31T12:40:06.843Z,22.00
2018-03-31T12:45:09.883Z,22.10
2018-03-31T12:50:12.792Z,22.00
2018-03-31T12:55:14.863Z,22.10
2018-03-31T13:00:17.277Z,22.10
2018-03-31T13:05:19.318Z,22.10
2018-03-31T13:10:21.347Z,22.10
2018-03-31T13:15:23.404Z,22.10
2018-03-31T13:20:25.472Z,22.20
2018-03-31T13:25:27.678Z,22.20
2018-03-31T13:30:29.758Z,22.20
2018-03-31T13:35:32.768Z,21.90
2018-03-31T13:40:34.980Z,21.90
2018-03-31T13:45:37.051Z,22.00
2018-03-31T13:50:39.126Z,22.10
2018-03-31T13:55:41.198Z,22.10
2018-03-31T14:00:44.319Z,22.20
2018-03-31T14:05:46.379Z,22.20
2018-03-31T14:10:49.187Z,22.20
2018-03-31T14:15:52.170Z,22.20
2018-03-31T14:20:55.734Z,22.20
2018-03-31T14:25:58.037Z,22.20
2018-03-31T14:31:00.106Z,22.30
2018-03-31T14:36:02.172Z,22.30
2018-03-31T14:41:04.953Z,22.30
2018-03-31T14:46:07.084Z,22.30
2018-03-31T14:51:09.463Z,22.40
2018-03-31T14:56:11.635Z,22.40
2018-03-31T15:01:13.718Z,22.30
2018-03-31T15:06:16.539Z,22.30
2018-03-31T15:11:18.901Z,22.30
2018-03-31T15:16:21.721Z,22.30
2018-03-31T15:21:23.752Z,22.30
2018-03-31T15:26:26.709Z,22.30
2018-03-31T15:31:29.099Z,22.30
2018-03-31T15:36:31.126Z,22.30
2018-03-31T15:41:33.153Z,22.30
2018-03-31T15:46:35.202Z,22.30
2018-03-31T15:51:37.299Z,22.40
2018-03-31T15:56:40.387Z,22.40
2018-03-31T16:01:42.432Z,22.40
2018-03-31T16:06:44.489Z,22.40
2018-03-31T16:11:46.540Z,22.40
2018-03-31T16:16:48.584Z,22.50
2018-03-31T16:21:50.891Z,22.50
2018-03-31T16:26:53.668Z,22.40
2018-03-31T16:31:55.812Z,22.50
2018-03-31T16:36:58.124Z,22.40
2018-03-31T16:42:00.384Z,22.50
2018-03-31T16:47:03.684Z,22.40
2018-03-31T16:52:05.784Z,22.40
2018-03-31T16:57:08.603Z,22.30
2018-03-31T17:02:10.681Z,22.30
2018-03-31T17:07:12.949Z,22.30
2018-03-31T17:12:15.238Z,22.30
2018-03-31T17:17:18.853Z,22.40
2018-03-31T17:22:21.146Z,22.40
2018-03-31T17:27:23.210Z,22.60
2018-03-31T17:32:26.193Z,22.60
2018-03-31T17:37:28.244Z,22.60
2018-03-31T17:42:30.356Z,22.70
2018-03-31T17:47:32.687Z,22.70
2018-03-31T17:52:35.552Z,22.80
2018-03-31T17:57:37.664Z,22.80
2018-03-31T18:02:39.833Z,22.80
2018-03-31T18:07:42.091Z,22.80
2018-03-31T18:12:44.512Z,22.80
2018-03-31T18:17:46.680Z,22.80
2018-03-31T18:22:48.888Z,22.90
2018-03-31T18:27:51.270Z,22.90
2018-03-31T18:32:53.357Z,22.90
2018-03-31T18:37:55.467Z,22.90
2018-03-31T18:42:58.315Z,22.90
2018-03-31T18:48:00.554Z,22.90
2018-03-31T18:53:02.699Z,22.90
2018-03-31T18:58:04.765Z,22.90
2018-03-31T19:03:06.830Z,22.90
2018-03-31T19:08:08.900Z,23.00
2018-03-31T19:13:11.019Z,23.00
2018-03-31T19:18:13.113Z,23.00
2018-03-31T19:23:15.155Z,23.00
2018-03-31T19:28:17.476Z,23.00
2018-03-31T19:33:19.664Z,23.00
2018-03-31T19:38:21.857Z,23.00
2018-03-31T19:43:24.099Z,23.10
2018-03-31T19:48:26.372Z,23.00
2018-03-31T19:53:28.549Z,23.10
2018-03-31T19:58:30.673Z,23.00
2018-03-31T20:03:32.899Z,23.00
2018-03-31T20:08:35.231Z,23.10
2018-03-31T20:13:37.310Z,23.10
2018-03-31T20:18:39.473Z,20.90
2018-03-31T20:23:42.028Z,21.40
2018-03-31T20:28:44.085Z,22.00
2018-03-31T20:33:46.225Z,22.50
2018-03-31T20:38:48.496Z,22.70
2018-03-31T20:43:50.702Z,22.80
2018-03-31T20:48:53.161Z,22.90
2018-03-31T20:53:55.501Z,22.90
2018-03-31T20:58:57.874Z,23.00
2018-03-31T21:03:59.946Z,23.00
2018-03-31T21:09:02.103Z,23.00
2018-03-31T21:14:04.183Z,23.00
2018-03-31T21:19:06.518Z,23.00
2018-03-31T21:24:09.040Z,23.00
2018-03-31T21:29:11.229Z,23.00
2018-03-31T21:34:14.433Z,23.10
2018-03-31T21:39:16.652Z,23.10
2018-03-31T21:44:19.264Z,23.10
2018-03-31T21:49:21.516Z,23.10
2018-03-31T21:54:23.678Z,23.10
2018-03-31T21:59:25.730Z,23.10
2018-03-31T22:04:28.058Z,23.20
2018-03-31T22:09:30.361Z,23.20
2018-03-31T22:14:38.898Z,23.20
2018-03-31T22:19:41.089Z,23.20
2018-03-31T22:24:43.923Z,23.20
2018-03-31T22:29:46.112Z,23.00
2018-03-31T22:34:48.210Z,22.80
2018-03-31T22:39:50.270Z,22.70
2018-03-31T22:44:52.336Z,22.70
2018-03-31T22:49:54.466Z,22.60
2018-03-31T22:54:56.496Z,22.50
2018-03-31T22:59:58.554Z,22.60
2018-03-31T23:05:00.609Z,22.50
2018-03-31T23:10:02.676Z,22.50
2018-03-31T23:15:04.721Z,22.50
2018-03-31T23:20:06.760Z,22.40
2018-03-31T23:25:09.164Z,22.40
2018-03-31T23:30:11.291Z,22.40
2018-03-31T23:35:13.459Z,22.40
2018-03-31T23:40:15.684Z,22.30
2018-03-31T23:45:17.735Z,22.30
2018-03-31T23:50:20.222Z,22.30
2018-03-31T23:55:22.339Z,22.20
